• Join FlightAware (Why Join?)
  • Login
  • US Flag 
04:21PM EST


 

Airport Tracker/Info


-or-


 

Live Flight TrackerFlight Track Log ✈ GJS3706 ✈ 10-Jul-2013 ✈ KTUL - KDEN

Flight Track Log - Related Links

Times and Time Zones

All times are in EDT time to prevent confusion due to time zone crossing. See the GJS3706 flight status page for this flight to view local times or setup timezone preferences in your user account.

Time Position Orientation Groundspeed Altitude Reporting Facility
EDT Latitude Longitude Course Direction KTS MPH feet Rate Location/Type
09:44PM 36.2597 -95.8808 North 188 216 2,400  Level Kansas City Center
09:45PM 36.2850 -95.8953 335° Northwest 209 241 3,300 1,860 Climbing Kansas City Center
09:45PM 36.3033 -95.9269 306° West 241 277 4,300 1,740 Climbing Kansas City Center
09:46PM 36.3189 -95.9644 297° West 235 270 5,100 1,800 Climbing Kansas City Center
09:47PM 36.3497 -96.0514 294° West 264 304 7,100 1,980 Climbing Kansas City Center
09:48PM 36.3831 -96.1408 295° West 280 322 9,200 1,860 Climbing Kansas City Center
09:49PM 36.4236 -96.2303 299° West 295 339 10,900 1,560 Climbing Kansas City Center
09:50PM 36.5083 -96.2697 339° North 315 362 12,400 1,500 Climbing Kansas City Center
09:51PM 36.5967 -96.3153 338° Northwest 335 386 14,000 1,440 Climbing Kansas City Center
09:52PM 36.6906 -96.3608 339° North 350 403 15,400 1,380 Climbing Kansas City Center
09:53PM 36.7878 -96.4086 339° North 366 421 16,900 1,560 Climbing Kansas City Center
09:54PM 36.9058 -96.4694 338° Northwest 377 434 18,700 1,500 Climbing Kansas City Center
09:55PM 37.0050 -96.5192 338° Northwest 381 438 20,000 1,320 Climbing Kansas City Center
09:56PM 37.1061 -96.5692 338° Northwest 387 445 21,500 1,260 Climbing Kansas City Center
09:57PM 37.1967 -96.6150 338° Northwest 388 447 22,700 1,020 Climbing Kansas City Center
09:58PM 37.2967 -96.6667 338° Northwest 388 447 23,600 840 Climbing Kansas City Center
09:59PM 37.4000 -96.7181 338° Northwest 396 456 24,500 900 Climbing Kansas City Center
10:00PM 37.5258 -96.7836 338° Northwest 405 466 25,500 900 Climbing Kansas City Center
10:01PM 37.6331 -96.8372 338° Northwest 412 474 26,400 840 Climbing Kansas City Center
10:02PM 37.7392 -96.8914 338° Northwest 413 475 27,300 840 Climbing Kansas City Center
10:03PM 37.8458 -96.9458 338° Northwest 414 476 28,200 720 Climbing Kansas City Center
10:04PM 37.9517 -97.0003 338° Northwest 412 474 28,800 540 Climbing Kansas City Center
10:05PM 38.0608 -97.0567 338° Northwest 422 486 29,400 600 Climbing Kansas City Center
10:06PM 38.1706 -97.1133 338° Northwest 426 490 30,100 660 Climbing Kansas City Center
10:07PM 38.2794 -97.1717 337° Northwest 427 491 30,800 720 Climbing Kansas City Center
10:08PM 38.4108 -97.2397 338° Northwest 426 490 31,600 720 Climbing Kansas City Center
10:09PM 38.5197 -97.2967 338° Northwest 426 490 32,300 720 Climbing Kansas City Center
10:10PM 38.6286 -97.3536 338° Northwest 424 488 33,100 660 Climbing Kansas City Center
10:11PM 38.7361 -97.4111 337° Northwest 420 483 33,700 420 Climbing Kansas City Center
10:12PM 38.8433 -97.4672 338° Northwest 418 481 34,000 420 Climbing Kansas City Center
10:13PM 38.9708 -97.4808 355° North 426 490 34,600 540 Climbing Kansas City Center
10:14PM 39.0853 -97.4811 360° North 428 493 35,200 720 Climbing Kansas City Center
10:15PM 39.2167 -97.4839 359° North 422 486 36,100 780 Climbing Kansas City Center
10:16PM 39.3272 -97.4864 359° North 416 479 36,900 720 Climbing Kansas City Center
10:17PM 39.4289 -97.5142 348° North 391 450 37,600 480 Climbing Kansas City Center
10:18PM 39.5231 -97.5858 330° Northwest 382 440 38,000 180 Climbing Kansas City Center
10:19PM 39.6156 -97.6583 329° Northwest 386 444 38,000  Level Kansas City Center
10:20PM 39.7303 -97.7458 330° Northwest 395 455 38,000  Level Kansas City Center
10:21PM 39.8300 -97.8156 332° Northwest 404 465 38,000  Level Kansas City Center
10:23PM 39.9283 -97.8931 329° Northwest 409 471 38,000  Level Kansas City Center
10:24PM 40.0278 -97.9744 328° Northwest 418 481 38,000  Level Kansas City Center
10:25PM 40.1272 -98.0514 329° Northwest 416 479 38,000  Level Kansas City Center
10:26PM 40.2244 -98.1283 329° Northwest 412 474 38,000  Level Denver Center
10:27PM 40.3231 -98.2064 329° Northwest 413 475 38,000  Level Denver Center
10:28PM 40.4219 -98.2833 329° Northwest 413 475 38,000  Level Denver Center
10:29PM 40.5372 -98.3792 328° Northwest 411 473 38,000  Level Denver Center
10:30PM 40.6011 -98.5011 305° West 406 467 38,000  Level Denver Center
10:31PM 40.6219 -98.6492 281° West 410 472 38,000  Level Denver Center
10:32PM 40.6364 -98.8000 277° West 412 474 38,000  Level Denver Center
10:33PM 40.6500 -98.9511 277° West 412 474 38,000  Level Denver Center
10:34PM 40.6631 -99.1019 277° West 412 474 38,000  Level Denver Center
10:35PM 40.6789 -99.2847 277° West 414 476 38,000  Level Minneapolis Center
10:36PM 40.6892 -99.4036 277° West 411 473 38,000  Level Denver Center
10:37PM 40.7011 -99.5536 276° West 411 473 38,000  Level Denver Center
10:38PM 40.7133 -99.7031 276° West 410 472 38,000  Level Denver Center
10:39PM 40.7278 -99.8756 276° West 409 471 38,000  Level Denver Center
10:40PM 40.7389 -100.0194 276° West 411 473 38,000 -120 Level Denver Center
10:41PM 40.7514 -100.1867 276° West 410 472 37,800 -540 Descending Denver Center
10:42PM 40.7628 -100.3314 276° West 414 476 36,900 -1,080 Descending Denver Center
10:43PM 40.7603 -100.5014 269° West 425 489 35,700 -1,080 Descending Denver Center
10:44PM 40.7361 -100.6500 258° West 425 489 34,700 -1,020 Descending Denver Center
10:45PM 40.7111 -100.8047 258° West 438 504 33,700 -960 Descending Denver Center
10:46PM 40.6908 -100.9536 260° West 428 493 32,800 -840 Descending Denver Center
10:47PM 40.6650 -101.1247 259° West 426 490 32,000 -540 Descending Denver Center
10:48PM 40.6428 -101.2706 259° West 425 489 31,800 -1,620 Descending Denver Center
10:49PM 40.6158 -101.4403 258° West 424 488 28,800 -2,820 Descending Denver Center
10:50PM 40.5928 -101.5811 258° West 413 475 26,100 -2,400 Descending Denver Center
10:51PM 40.5578 -101.7383 254° West 405 466 24,000 -1,080 Descending Denver Center
10:52PM 40.4919 -101.8597 235° Southwest 423 487 24,000  Level Denver Center
10:53PM 40.4294 -101.9839 237° Southwest 426 490 24,000  Level Denver Center
10:54PM 40.3600 -102.1281 238° Southwest 419 482 24,000  Level Denver Center
10:55PM 40.3389 -102.2669 259° West 402 463 24,000  Level Denver Center
10:56PM 40.3261 -102.4286 264° West 401 461 24,000  Level Denver Center
10:57PM 40.3133 -102.5692 263° West 405 466 24,000  Level Denver Center
10:58PM 40.3022 -102.7103 264° West 406 467 24,000  Level Denver Center
10:59PM 40.2900 -102.8575 264° West 408 470 24,000  Level Denver Center
11:01PM 40.2778 -103.0067 264° West 413 475 24,000 -300 Level Denver Center
11:02PM 40.2611 -103.1825 263° West 408 470 23,500 -1,020 Descending Denver Center
11:03PM 40.2489 -103.3289 264° West 408 470 22,000 -1,440 Descending Denver Center
11:04PM 40.2350 -103.4719 263° West 400 460 20,600 -1,380 Descending Denver Center
11:05PM 40.2222 -103.6122 263° West 392 451 19,200 -1,320 Descending Denver Center
11:06PM 40.2106 -103.7475 264° West 358 412 17,900 -1,080 Descending Denver Center
11:07PM 40.2022 -103.8592 264° West 307 353 17,100 -1,080 Descending Denver Center
11:08PM 40.2119 -103.9811 276° West 317 365 15,700 -1,320 Descending Denver Center
11:09PM 40.2239 -104.0981 278° West 324 373 14,400 -1,200 Descending Denver Center
11:10PM 40.2322 -104.1928 277° West 315 362 13,300 -1,320 Descending Denver Center
11:11PM 40.2456 -104.3314 277° West 313 360 11,700 -1,320 Descending Denver Center
11:12PM 40.2381 -104.4306 264° West 269 310 10,600 -1,200 Descending Denver Center
11:13PM 40.2075 -104.5108 244° Southwest 248 285 9,300 -840 Descending Denver Center
11:14PM 40.1706 -104.5933 240° Southwest 243 280 9,000 -120 Descending Denver Center
11:15PM 40.1172 -104.6469 218° Southwest 245 282 9,100 -240 Climbing Denver Center
11:16PM 40.0625 -104.6833 207° Southwest 223 257 8,600 -840 Descending Denver Center
11:17PM 40.0036 -104.6861 182° South 197 227 7,400 -1,080 Descending Denver Center
11:18PM 39.9533 -104.6864 180° South 178 205 6,400 -840 Descending Denver Center
11:19PM 39.9172 -104.6864 180° South 133 153 5,800 -540 Descending Denver Center
11:20PM 39.8867 -104.6867 180° South 130 150 5,300 -540 Descending Denver Center
11:22PM 39.8617 -104.6732 180° South  Level Estimated
11:29PM 39.8617 -104.6732 180° South  Level Estimated
11:30PM 39.8617 -104.6732 180° South  Level Estimated
11:31PM 39.8617 -104.6732 180° South  Level Estimated